createdAt,value
2018-01-07T00:01:46.983Z,4.20
2018-01-07T00:04:13.283Z,4.10
2018-01-07T00:06:39.565Z,4.10
2018-01-07T00:09:05.819Z,4.20
2018-01-07T00:11:32.943Z,4.20
2018-01-07T00:13:59.206Z,4.20
2018-01-07T00:16:26.981Z,4.20
2018-01-07T00:18:53.984Z,4.20
2018-01-07T00:21:20.808Z,4.20
2018-01-07T00:23:47.506Z,4.20
2018-01-07T00:26:14.421Z,4.20
2018-01-07T00:28:41.317Z,4.10
2018-01-07T00:31:08.807Z,4.00
2018-01-07T00:33:35.100Z,4.10
2018-01-07T00:36:01.946Z,4.10
2018-01-07T00:38:28.200Z,4.10
2018-01-07T00:40:54.481Z,4.10
2018-01-07T00:43:21.160Z,4.00
2018-01-07T00:45:47.417Z,4.10
2018-01-07T00:48:14.439Z,4.10
2018-01-07T00:50:41.112Z,4.10
2018-01-07T00:53:08.584Z,4.10
2018-01-07T00:55:35.709Z,4.10
2018-01-07T00:58:02.410Z,4.10
2018-01-07T01:00:28.704Z,4.10
2018-01-07T01:02:56.169Z,4.20
2018-01-07T01:05:23.186Z,4.20
2018-01-07T01:07:50.061Z,4.20
2018-01-07T01:10:17.057Z,4.30
2018-01-07T01:12:44.087Z,4.30
2018-01-07T01:15:10.893Z,4.30
2018-01-07T01:17:37.151Z,4.30
2018-01-07T01:20:04.573Z,4.40
2018-01-07T01:22:31.284Z,4.40
2018-01-07T01:24:58.609Z,4.40
2018-01-07T01:27:25.357Z,4.40
2018-01-07T01:29:52.824Z,4.40
2018-01-07T01:32:19.825Z,4.40
2018-01-07T01:34:46.089Z,4.40
2018-01-07T01:37:13.017Z,4.40
2018-01-07T01:39:39.273Z,4.30
2018-01-07T01:42:05.534Z,4.30
2018-01-07T01:44:32.549Z,4.30
2018-01-07T01:46:58.808Z,4.30
2018-01-07T01:49:25.565Z,4.30
2018-01-07T01:51:53.123Z,4.40
2018-01-07T01:54:20.694Z,4.40
2018-01-07T01:56:48.337Z,4.40
2018-01-07T01:59:14.593Z,4.40
2018-01-07T02:01:42.153Z,4.40
2018-01-07T02:04:09.579Z,4.40
2018-01-07T02:06:35.853Z,4.40
2018-01-07T02:09:02.910Z,4.40
2018-01-07T02:11:30.469Z,4.40
2018-01-07T02:13:57.461Z,4.50
2018-01-07T02:16:23.737Z,4.50
2018-01-07T02:18:50.589Z,4.50
2018-01-07T02:21:17.357Z,4.50
2018-01-07T02:23:44.845Z,4.40
2018-01-07T02:26:11.101Z,4.40
2018-01-07T02:28:37.833Z,4.40
2018-01-07T02:31:04.105Z,4.40
2018-01-07T02:33:30.391Z,4.40
2018-01-07T02:35:57.122Z,4.30
2018-01-07T02:38:23.441Z,4.40
2018-01-07T02:40:50.495Z,4.30
2018-01-07T02:43:17.541Z,4.30
2018-01-07T02:45:43.810Z,4.20
2018-01-07T02:48:10.158Z,4.20
2018-01-07T02:50:36.953Z,4.10
2018-01-07T02:53:04.426Z,4.10
2018-01-07T02:55:32.305Z,4.00
2018-01-07T02:57:59.655Z,3.90
2018-01-07T03:00:26.651Z,3.90
2018-01-07T03:02:53.353Z,3.90
2018-01-07T03:05:21.013Z,4.00
2018-01-07T03:07:47.273Z,3.90
2018-01-07T03:10:14.621Z,3.90
2018-01-07T03:12:41.622Z,3.90
2018-01-07T03:15:09.143Z,3.90
2018-01-07T03:17:36.152Z,3.90
2018-01-07T03:20:03.043Z,3.90
2018-01-07T03:22:30.589Z,3.90
2018-01-07T03:24:57.317Z,3.80
2018-01-07T03:27:24.325Z,3.80
2018-01-07T03:29:51.144Z,3.80
2018-01-07T03:32:18.133Z,3.80
2018-01-07T03:34:44.399Z,3.80
2018-01-07T03:37:14.350Z,3.80
2018-01-07T03:39:41.947Z,3.80
2018-01-07T03:42:08.201Z,3.80
2018-01-07T03:44:34.909Z,3.80
2018-01-07T03:47:01.666Z,3.80
2018-01-07T03:49:28.504Z,3.80
2018-01-07T03:51:55.362Z,3.80
2018-01-07T03:54:22.369Z,3.80
2018-01-07T03:56:49.339Z,3.80
2018-01-07T03:59:16.335Z,3.80
2018-01-07T04:01:43.146Z,3.80
2018-01-07T04:04:10.141Z,3.80
2018-01-07T04:06:37.859Z,3.80
2018-01-07T04:09:04.861Z,3.80
2018-01-07T04:11:31.527Z,3.80
2018-01-07T04:13:57.759Z,3.70
2018-01-07T04:16:24.009Z,3.70
2018-01-07T04:18:50.552Z,3.80
2018-01-07T04:21:17.989Z,3.80
2018-01-07T04:23:45.291Z,3.80
2018-01-07T04:26:12.288Z,3.70
2018-01-07T04:28:39.150Z,3.70
2018-01-07T04:31:05.799Z,3.70
2018-01-07T04:33:32.053Z,3.70
2018-01-07T04:35:59.460Z,3.60
2018-01-07T04:38:25.709Z,3.60
2018-01-07T04:40:51.973Z,3.70
2018-01-07T04:43:18.247Z,3.70
2018-01-07T04:45:44.921Z,3.70
2018-01-07T04:48:11.645Z,3.60
2018-01-07T04:50:38.369Z,3.60
2018-01-07T04:53:05.789Z,3.60
2018-01-07T04:55:32.073Z,3.60
2018-01-07T04:57:58.861Z,3.60
2018-01-07T05:00:25.133Z,3.60
2018-01-07T05:02:52.122Z,3.70
2018-01-07T05:05:18.941Z,3.60
2018-01-07T05:07:45.784Z,3.70
2018-01-07T05:10:12.781Z,3.80
2018-01-07T05:12:39.046Z,3.80
2018-01-07T05:15:05.613Z,3.80
2018-01-07T05:17:32.607Z,3.90
2018-01-07T05:19:58.943Z,3.90
2018-01-07T05:22:25.621Z,3.90
2018-01-07T05:24:52.503Z,4.00
2018-01-07T05:27:20.320Z,4.00
2018-01-07T05:29:47.013Z,4.00
2018-01-07T05:32:14.677Z,4.00
2018-01-07T05:34:41.664Z,4.00
2018-01-07T05:37:08.372Z,4.00
2018-01-07T05:39:35.382Z,4.00
2018-01-07T05:42:02.086Z,4.00
2018-01-07T05:44:28.917Z,4.00
2018-01-07T05:46:55.921Z,3.90
2018-01-07T05:49:22.183Z,3.90
2018-01-07T05:51:48.829Z,3.90
2018-01-07T05:54:15.505Z,3.80
2018-01-07T05:56:43.161Z,3.80
2018-01-07T05:59:10.593Z,3.70
2018-01-07T06:01:37.344Z,3.70
2018-01-07T06:04:03.605Z,3.70
2018-01-07T06:06:30.600Z,3.70
2018-01-07T06:08:56.906Z,3.70
2018-01-07T06:11:23.165Z,3.70
2018-01-07T06:13:50.041Z,3.70
2018-01-07T06:16:16.303Z,3.70
2018-01-07T06:18:43.870Z,3.60
2018-01-07T06:21:11.354Z,3.60
2018-01-07T06:23:38.010Z,3.60
2018-01-07T06:26:04.706Z,3.60
2018-01-07T06:28:31.621Z,3.50
2018-01-07T06:30:57.888Z,3.60
2018-01-07T06:33:25.089Z,3.60
2018-01-07T06:35:52.390Z,3.60
2018-01-07T06:38:18.645Z,3.60
2018-01-07T06:40:45.469Z,3.70
2018-01-07T06:43:12.455Z,3.70
2018-01-07T06:45:39.456Z,3.70
2018-01-07T06:48:05.714Z,3.70
2018-01-07T06:50:32.476Z,3.80
2018-01-07T06:52:59.197Z,3.80
2018-01-07T06:55:25.837Z,3.80
2018-01-07T06:57:52.533Z,3.80
2018-01-07T07:00:19.906Z,3.70
2018-01-07T07:02:46.201Z,3.70
2018-01-07T07:05:12.920Z,3.70
2018-01-07T07:07:39.657Z,3.70
2018-01-07T07:10:05.901Z,3.70
2018-01-07T07:12:32.194Z,3.80
2018-01-07T07:14:58.725Z,3.80
2018-01-07T07:17:25.734Z,3.90
2018-01-07T07:19:52.624Z,3.90
2018-01-07T07:22:19.961Z,3.90
2018-01-07T07:24:46.527Z,3.90
2018-01-07T07:27:13.992Z,4.00
2018-01-07T07:29:41.357Z,4.10
2018-01-07T07:32:07.616Z,4.00
2018-01-07T07:34:33.890Z,4.00
2018-01-07T07:37:02.119Z,4.10
2018-01-07T07:39:28.867Z,4.10
2018-01-07T07:41:55.686Z,4.20
2018-01-07T07:44:22.688Z,4.30
2018-01-07T07:46:48.961Z,4.30
2018-01-07T07:49:15.253Z,4.30
2018-01-07T07:51:42.217Z,4.30
2018-01-07T07:54:08.857Z,4.40
2018-01-07T07:56:35.954Z,4.40
2018-01-07T07:59:03.515Z,4.60
2018-01-07T08:01:30.881Z,4.60
2018-01-07T08:03:58.159Z,4.70
2018-01-07T08:06:24.757Z,4.70
2018-01-07T08:08:51.458Z,4.70
2018-01-07T08:11:17.720Z,4.70
2018-01-07T08:13:43.985Z,4.80
2018-01-07T08:16:10.534Z,4.80
2018-01-07T08:18:37.653Z,5.00
2018-01-07T08:21:04.645Z,4.90
2018-01-07T08:23:32.869Z,5.10
2018-01-07T08:25:59.789Z,5.10
2018-01-07T08:28:27.026Z,5.10
2018-01-07T08:30:54.051Z,5.30
2018-01-07T08:33:20.326Z,5.30
2018-01-07T08:35:47.790Z,5.40
2018-01-07T08:38:14.746Z,5.40
2018-01-07T08:40:41.014Z,5.50
2018-01-07T08:43:07.281Z,5.60
2018-01-07T08:45:34.154Z,5.60
2018-01-07T08:48:01.149Z,5.70
2018-01-07T08:50:27.885Z,5.70
2018-01-07T08:52:54.157Z,5.80
2018-01-07T08:55:21.741Z,5.90
2018-01-07T08:57:49.201Z,6.00
2018-01-07T09:00:16.201Z,6.10
2018-01-07T09:02:42.859Z,6.00
2018-01-07T09:05:09.126Z,6.00
2018-01-07T09:07:35.986Z,6.20
2018-01-07T09:10:02.998Z,6.30
2018-01-07T09:12:29.245Z,6.30
2018-01-07T09:14:55.879Z,6.40
2018-01-07T09:17:22.110Z,6.50
2018-01-07T09:19:48.368Z,6.60
2018-01-07T09:22:15.361Z,6.70
2018-01-07T09:24:42.294Z,6.70
2018-01-07T09:27:09.743Z,6.90
2018-01-07T09:29:37.129Z,6.90
2018-01-07T09:32:04.153Z,6.90
2018-01-07T09:34:31.181Z,7.00
2018-01-07T09:36:58.275Z,7.00
2018-01-07T09:39:25.288Z,6.80
2018-01-07T09:41:51.563Z,6.80
2018-01-07T09:44:18.169Z,6.50
2018-01-07T09:46:44.441Z,6.20
2018-01-07T09:49:11.521Z,5.60
2018-01-07T09:51:38.273Z,5.60
2018-01-07T09:54:05.153Z,5.50
2018-01-07T09:56:32.141Z,5.10
2018-01-07T09:58:58.737Z,5.10
2018-01-07T10:01:25.012Z,4.90
2018-01-07T10:03:52.009Z,5.00
2018-01-07T10:06:18.915Z,5.00
2018-01-07T10:08:46.380Z,5.00
2018-01-07T10:11:13.365Z,5.00
2018-01-07T10:13:40.297Z,5.00
2018-01-07T10:16:06.561Z,5.10
2018-01-07T10:18:33.661Z,5.10
2018-01-07T10:21:01.430Z,4.90
2018-01-07T10:23:28.427Z,4.90
2018-01-07T10:25:54.677Z,4.90
2018-01-07T10:28:21.336Z,4.80
2018-01-07T10:30:48.313Z,4.80
2018-01-07T10:33:15.966Z,4.80
2018-01-07T10:35:42.960Z,4.80
2018-01-07T10:38:09.565Z,4.80
2018-01-07T10:40:36.581Z,4.60
2018-01-07T10:43:02.827Z,4.60
2018-01-07T10:45:30.420Z,4.60
2018-01-07T10:47:57.417Z,4.60
2018-01-07T10:50:24.326Z,4.60
2018-01-07T10:52:51.765Z,4.60
2018-01-07T10:55:18.025Z,4.60
2018-01-07T10:57:45.685Z,4.60
2018-01-07T11:00:12.721Z,4.50
2018-01-07T11:02:39.107Z,4.50
2018-01-07T11:05:05.673Z,4.60
2018-01-07T11:07:31.931Z,4.70
2018-01-07T11:09:58.899Z,4.70
2018-01-07T11:12:25.918Z,4.70
2018-01-07T11:14:52.806Z,4.70
2018-01-07T11:17:20.514Z,4.80
2018-01-07T11:19:46.763Z,4.80
2018-01-07T11:22:14.361Z,4.80
2018-01-07T11:24:40.653Z,4.80
2018-01-07T11:27:07.654Z,4.90
2018-01-07T11:29:35.329Z,5.00
2018-01-07T11:32:02.950Z,5.10
2018-01-07T11:34:29.214Z,5.10
2018-01-07T11:36:55.905Z,5.20
2018-01-07T11:39:22.168Z,5.30
2018-01-07T11:41:49.145Z,5.40
2018-01-07T11:44:16.145Z,5.50
2018-01-07T11:46:42.400Z,5.40
2018-01-07T11:49:09.070Z,5.50
2018-01-07T11:51:35.747Z,5.60
2018-01-07T11:54:02.064Z,5.60
2018-01-07T11:56:29.111Z,5.60
2018-01-07T11:58:56.180Z,5.60
2018-01-07T12:01:23.734Z,5.70
2018-01-07T12:03:50.751Z,5.70
2018-01-07T12:06:17.025Z,5.60
2018-01-07T12:08:44.497Z,5.60
2018-01-07T12:11:11.500Z,5.50
2018-01-07T12:13:38.599Z,5.50
2018-01-07T12:16:05.150Z,5.50
2018-01-07T12:18:31.782Z,5.50
2018-01-07T12:20:59.574Z,5.50
2018-01-07T12:23:26.550Z,5.40
2018-01-07T12:25:53.342Z,5.40
2018-01-07T12:28:21.121Z,5.40
2018-01-07T12:30:48.126Z,5.40
2018-01-07T12:33:14.403Z,5.40
2018-01-07T12:35:41.406Z,5.40
2018-01-07T12:38:08.209Z,5.30
2018-01-07T12:40:35.217Z,5.30
2018-01-07T12:43:01.486Z,5.20
2018-01-07T12:45:29.080Z,5.20
2018-01-07T12:47:55.342Z,5.20
2018-01-07T12:50:21.606Z,5.20
2018-01-07T12:52:48.232Z,5.10
2018-01-07T12:55:14.537Z,5.10
2018-01-07T12:57:41.353Z,5.10
2018-01-07T13:00:08.369Z,5.10
2018-01-07T13:02:34.645Z,5.10
2018-01-07T13:05:00.930Z,5.10
2018-01-07T13:07:27.197Z,5.20
2018-01-07T13:09:54.678Z,5.20
2018-01-07T13:12:22.441Z,5.30
2018-01-07T13:14:49.898Z,5.10
2018-01-07T13:17:17.603Z,5.10
2018-01-07T13:19:43.857Z,5.10
2018-01-07T13:22:10.552Z,5.00
2018-01-07T13:24:38.126Z,5.00
2018-01-07T13:27:04.889Z,5.00
2018-01-07T13:29:31.909Z,5.00
2018-01-07T13:31:58.913Z,4.90
2018-01-07T13:34:25.169Z,4.90
2018-01-07T13:36:52.149Z,5.00
2018-01-07T13:39:19.153Z,5.00
2018-01-07T13:41:45.422Z,5.00
2018-01-07T13:44:12.115Z,5.00
2018-01-07T13:46:38.806Z,5.00
2018-01-07T13:49:05.084Z,4.90
2018-01-07T13:51:31.727Z,4.80
2018-01-07T13:53:58.425Z,4.70
2018-01-07T13:56:24.729Z,4.70
2018-01-07T13:58:51.517Z,4.70
2018-01-07T14:01:17.786Z,4.70
2018-01-07T14:03:44.091Z,4.60
2018-01-07T14:06:11.136Z,4.60
2018-01-07T14:08:37.397Z,4.60
2018-01-07T14:11:04.230Z,4.50
2018-01-07T14:13:31.990Z,4.50
2018-01-07T14:15:58.262Z,4.50
2018-01-07T14:18:24.903Z,4.50
2018-01-07T14:20:51.423Z,4.40
2018-01-07T14:23:18.987Z,4.40
2018-01-07T14:25:45.990Z,4.30
2018-01-07T14:28:14.135Z,4.30
2018-01-07T14:30:40.849Z,4.30
2018-01-07T14:33:08.315Z,4.30
2018-01-07T14:35:35.989Z,4.30
2018-01-07T14:38:03.391Z,4.30
2018-01-07T14:40:30.307Z,4.30
2018-01-07T14:42:57.966Z,4.20
2018-01-07T14:45:24.978Z,4.20
2018-01-07T14:47:51.687Z,4.10
2018-01-07T14:50:17.944Z,4.10
2018-01-07T14:52:44.728Z,4.10
2018-01-07T14:55:12.576Z,4.10
2018-01-07T14:57:39.893Z,4.10
2018-01-07T15:00:06.800Z,4.10
2018-01-07T15:02:33.891Z,4.10
2018-01-07T15:05:01.038Z,4.00
2018-01-07T15:07:29.503Z,4.00
2018-01-07T15:09:56.567Z,3.90
2018-01-07T15:12:24.720Z,3.90
2018-01-07T15:14:50.987Z,3.90
2018-01-07T15:17:18.341Z,3.80
2018-01-07T15:19:45.873Z,3.80
2018-01-07T15:22:12.546Z,3.80
2018-01-07T15:24:40.247Z,3.70
2018-01-07T15:27:06.530Z,3.60
2018-01-07T15:29:33.480Z,3.50
2018-01-07T15:31:59.737Z,3.40
2018-01-07T15:34:26.729Z,3.40
2018-01-07T15:36:53.533Z,3.30
2018-01-07T15:39:21.827Z,3.30
2018-01-07T15:41:48.862Z,3.30
2018-01-07T15:44:15.133Z,3.20
2018-01-07T15:46:42.575Z,3.30
2018-01-07T15:49:10.030Z,3.20
2018-01-07T15:51:37.493Z,3.20
2018-01-07T15:54:04.519Z,3.10
2018-01-07T15:56:30.773Z,3.10
2018-01-07T15:58:57.605Z,3.10
2018-01-07T16:01:23.887Z,3.00
2018-01-07T16:03:50.717Z,3.00
2018-01-07T16:06:18.303Z,2.90
2018-01-07T16:08:45.423Z,2.90
2018-01-07T16:11:12.169Z,2.90
2018-01-07T16:13:38.433Z,2.90
2018-01-07T16:16:05.209Z,3.00
2018-01-07T16:18:32.006Z,2.90
2018-01-07T16:20:59.597Z,2.80
2018-01-07T16:23:26.589Z,2.90
2018-01-07T16:25:52.864Z,2.90
2018-01-07T16:28:20.520Z,2.90
2018-01-07T16:30:48.018Z,2.90
2018-01-07T16:33:14.279Z,2.90
2018-01-07T16:35:41.078Z,2.90
2018-01-07T16:38:08.413Z,2.80
2018-01-07T16:40:35.174Z,2.80
2018-01-07T16:43:02.186Z,2.80
2018-01-07T16:45:28.476Z,2.80
2018-01-07T16:47:55.414Z,2.80
2018-01-07T16:50:22.440Z,2.80
2018-01-07T16:52:49.040Z,2.80
2018-01-07T16:55:15.912Z,2.80
2018-01-07T16:57:42.773Z,2.80
2018-01-07T17:00:11.014Z,2.80
2018-01-07T17:02:37.280Z,2.80
2018-01-07T17:05:04.044Z,2.70
2018-01-07T17:07:30.313Z,2.70
2018-01-07T17:09:56.581Z,2.70
2018-01-07T17:12:22.849Z,2.70
2018-01-07T17:14:49.535Z,2.70
2018-01-07T17:17:16.367Z,2.70
2018-01-07T17:19:43.365Z,2.70
2018-01-07T17:22:10.152Z,2.60
2018-01-07T17:24:36.445Z,2.70
2018-01-07T17:27:02.741Z,2.60
2018-01-07T17:29:31.017Z,2.70
2018-01-07T17:31:58.472Z,2.60
2018-01-07T17:34:25.938Z,2.60
2018-01-07T17:36:53.801Z,2.60
2018-01-07T17:39:21.296Z,2.70
2018-01-07T17:41:47.558Z,2.70
2018-01-07T17:44:13.824Z,2.60
2018-01-07T17:46:40.559Z,2.70
2018-01-07T17:49:07.541Z,2.70
2018-01-07T17:51:35.906Z,2.60
2018-01-07T17:54:02.178Z,2.60
2018-01-07T17:56:28.445Z,2.60
2018-01-07T17:58:55.389Z,2.60
2018-01-07T18:01:21.733Z,2.60
2018-01-07T18:03:48.318Z,2.60
2018-01-07T18:06:15.325Z,2.60
2018-01-07T18:08:41.596Z,2.60
2018-01-07T18:11:08.961Z,2.60
2018-01-07T18:13:37.310Z,2.60
2018-01-07T18:16:04.177Z,2.60
2018-01-07T18:18:31.078Z,2.70
2018-01-07T18:20:57.826Z,2.60
2018-01-07T18:23:25.042Z,2.70
2018-01-07T18:25:51.727Z,2.60
2018-01-07T18:28:18.749Z,2.60
2018-01-07T18:30:46.111Z,2.50
2018-01-07T18:33:13.565Z,2.50
2018-01-07T18:35:40.584Z,2.50
2018-01-07T18:38:07.676Z,2.50
2018-01-07T18:40:35.112Z,2.50
2018-01-07T18:43:01.381Z,2.50
2018-01-07T18:45:28.173Z,2.50
2018-01-07T18:47:54.441Z,2.50
2018-01-07T18:50:35.639Z,2.60
2018-01-07T18:53:02.645Z,2.60
2018-01-07T18:55:29.351Z,2.50
2018-01-07T18:57:56.847Z,2.50
2018-01-07T19:00:23.424Z,2.50
2018-01-07T19:02:50.831Z,2.50
2018-01-07T19:05:17.105Z,2.50
2018-01-07T19:07:44.117Z,2.50
2018-01-07T19:10:11.070Z,2.50
2018-01-07T19:12:37.869Z,2.50
2018-01-07T19:15:05.329Z,2.40
2018-01-07T19:17:32.335Z,2.30
2018-01-07T19:19:58.599Z,2.40
2018-01-07T19:22:25.266Z,2.30
2018-01-07T19:24:52.290Z,2.50
2018-01-07T19:27:18.552Z,2.40
2018-01-07T19:29:46.085Z,2.40
2018-01-07T19:32:12.821Z,2.50
2018-01-07T19:34:39.107Z,2.40
2018-01-07T19:37:05.741Z,2.50
2018-01-07T19:39:33.509Z,2.40
2018-01-07T19:42:01.789Z,2.40
2018-01-07T19:44:29.291Z,2.40
2018-01-07T19:46:55.725Z,2.40
2018-01-07T19:49:21.994Z,2.40
2018-01-07T19:51:48.691Z,2.30
2018-01-07T19:54:14.963Z,2.30
2018-01-07T19:56:41.253Z,2.30
2018-01-07T19:59:07.875Z,2.30
2018-01-07T20:01:35.281Z,2.30
2018-01-07T20:04:03.010Z,2.30
2018-01-07T20:06:30.569Z,2.30
2018-01-07T20:08:58.130Z,2.30
2018-01-07T20:11:24.442Z,2.20
2018-01-07T20:13:51.442Z,2.20
2018-01-07T20:16:17.743Z,2.20
2018-01-07T20:18:44.037Z,2.20
2018-01-07T20:21:10.845Z,2.10
2018-01-07T20:23:38.413Z,2.20
2018-01-07T20:26:05.961Z,2.10
2018-01-07T20:28:32.667Z,2.10
2018-01-07T20:30:59.527Z,2.20
2018-01-07T20:33:26.320Z,2.20
2018-01-07T20:35:53.338Z,2.20
2018-01-07T20:38:19.629Z,2.10
2018-01-07T20:40:46.425Z,2.20
2018-01-07T20:43:13.197Z,2.10
2018-01-07T20:45:40.270Z,2.20
2018-01-07T20:48:06.559Z,2.10
2018-01-07T20:50:32.854Z,2.10
2018-01-07T20:52:59.807Z,2.10
2018-01-07T20:55:26.455Z,2.10
2018-01-07T20:57:53.366Z,2.10
2018-01-07T21:00:20.441Z,2.10
2018-01-07T21:02:46.725Z,2.00
2018-01-07T21:05:13.444Z,2.00
2018-01-07T21:07:40.687Z,2.00
2018-01-07T21:10:06.993Z,2.10
2018-01-07T21:12:34.523Z,2.00
2018-01-07T21:15:00.849Z,2.00
2018-01-07T21:17:27.160Z,2.00
2018-01-07T21:19:53.750Z,2.00
2018-01-07T21:22:21.245Z,2.00
2018-01-07T21:24:48.077Z,2.00
2018-01-07T21:27:15.855Z,2.00
2018-01-07T21:29:44.261Z,2.10
2018-01-07T21:32:10.885Z,2.10
2018-01-07T21:34:37.141Z,2.10
2018-01-07T21:37:03.421Z,2.00
2018-01-07T21:39:29.947Z,2.00
2018-01-07T21:41:56.806Z,2.00
2018-01-07T21:44:23.101Z,2.00
2018-01-07T21:46:49.849Z,2.10
2018-01-07T21:49:16.117Z,2.10
2018-01-07T21:51:42.381Z,2.00
2018-01-07T21:54:09.785Z,2.10
2018-01-07T21:56:36.492Z,2.00
2018-01-07T21:59:03.933Z,2.00
2018-01-07T22:01:43.421Z,2.00
2018-01-07T22:04:10.237Z,2.00
2018-01-07T22:06:49.365Z,2.00
2018-01-07T22:09:16.841Z,2.00
2018-01-07T22:11:43.599Z,2.00
2018-01-07T22:14:10.319Z,2.00
2018-01-07T22:16:37.661Z,2.00
2018-01-07T22:19:03.953Z,2.00
2018-01-07T22:21:30.973Z,2.00
2018-01-07T22:23:57.585Z,2.00
2018-01-07T22:26:23.894Z,2.00
2018-01-07T22:28:50.791Z,2.00
2018-01-07T22:31:18.489Z,1.90
2018-01-07T22:33:45.309Z,1.90
2018-01-07T22:36:12.981Z,1.90
2018-01-07T22:38:40.573Z,1.90
2018-01-07T22:41:07.281Z,1.90
2018-01-07T22:43:34.632Z,2.00
2018-01-07T22:46:01.637Z,1.90
2018-01-07T22:48:27.904Z,1.90
2018-01-07T22:50:54.673Z,1.90
2018-01-07T22:53:22.119Z,2.00
2018-01-07T22:55:48.389Z,2.00
2018-01-07T22:58:15.821Z,2.00
2018-01-07T23:00:42.613Z,2.00
2018-01-07T23:03:09.346Z,2.00
2018-01-07T23:05:36.277Z,2.00
2018-01-07T23:08:03.731Z,2.00
2018-01-07T23:10:30.775Z,2.00
2018-01-07T23:12:57.048Z,2.00
2018-01-07T23:15:24.093Z,2.00
2018-01-07T23:17:50.370Z,2.00
2018-01-07T23:20:16.981Z,2.00
2018-01-07T23:22:44.120Z,1.90
2018-01-07T23:25:11.639Z,2.10
2018-01-07T23:27:37.935Z,2.10
2018-01-07T23:30:04.898Z,2.10
2018-01-07T23:32:31.693Z,2.10
2018-01-07T23:34:57.997Z,2.10
2018-01-07T23:37:24.869Z,2.30
2018-01-07T23:39:51.794Z,2.20
2018-01-07T23:42:18.477Z,2.10
2018-01-07T23:44:44.737Z,2.20
2018-01-07T23:47:12.505Z,2.20
2018-01-07T23:49:39.941Z,2.20
2018-01-07T23:52:06.749Z,2.10
2018-01-07T23:54:33.023Z,2.20
2018-01-07T23:56:59.994Z,2.20
2018-01-07T23:59:26.963Z,2.20
